Time;durP1;ratioP1;P1;durP2;ratioP2;P2;SDS_P1;SDS_P2;PMS_P1;PMS_P2;Temp;Humidity;BMP_temperature;BMP_pressure;BME280_temperature;BME280_humidity;BME280_pressure;Samples;Min_cycle;Max_cycle;Signal;HPM_P1;HPM_P2
2021/10/08 00:01:45;;;;;;;6.60;4.57;;;10.50;84.60;;;;;;5016000;28;20391;-82
2021/10/08 00:04:11;;;;;;;5.70;4.50;;;10.40;84.60;;;;;;5016422;28;20108;-82
2021/10/08 00:06:36;;;;;;;5.72;4.40;;;10.40;84.50;;;;;;5007673;28;20164;-81
2021/10/08 00:09:03;;;;;;;6.57;4.15;;;10.30;84.50;;;;;;5007182;28;20047;-82
2021/10/08 00:11:29;;;;;;;5.50;4.50;;;10.30;84.40;;;;;;5010793;28;20504;-81
2021/10/08 00:13:55;;;;;;;5.63;4.35;;;10.30;84.40;;;;;;5011170;28;20098;-81
2021/10/08 00:16:20;;;;;;;5.10;4.20;;;10.20;84.40;;;;;;4999288;28;20480;-81
2021/10/08 00:18:47;;;;;;;4.45;3.38;;;10.20;84.40;;;;;;5010194;28;20451;-80
2021/10/08 00:21:13;;;;;;;5.53;4.30;;;10.10;84.40;;;;;;5011223;28;20022;-82
2021/10/08 00:23:38;;;;;;;4.78;3.92;;;10.10;84.40;;;;;;5011008;28;20025;-82
2021/10/08 00:26:04;;;;;;;5.35;4.30;;;10.00;84.40;;;;;;5010116;28;20034;-81
2021/10/08 00:28:29;;;;;;;4.93;4.00;;;10.00;84.30;;;;;;5010266;28;20022;-81
2021/10/08 00:30:55;;;;;;;4.40;3.92;;;9.90;84.30;;;;;;5011170;28;20441;-81
2021/10/08 00:33:20;;;;;;;6.07;4.00;;;9.80;84.40;;;;;;5010636;28;20053;-80
2021/10/08 00:35:46;;;;;;;5.00;3.92;;;9.80;84.40;;;;;;5011040;28;20073;-81
2021/10/08 00:38:12;;;;;;;6.70;4.15;;;9.80;84.40;;;;;;5009120;28;20034;-80
2021/10/08 00:40:44;;;;;;;5.15;4.03;;;9.70;84.40;;;;;;5010700;28;20114;-80
2021/10/08 00:43:10;;;;;;;5.63;4.05;;;9.70;84.50;;;;;;5011014;28;20030;-81
2021/10/08 00:45:37;;;;;;;5.03;3.80;;;9.70;84.50;;;;;;5010583;27;20026;-80
2021/10/08 00:48:07;;;;;;;4.85;3.72;;;9.70;84.50;;;;;;5010213;28;20033;-80
2021/10/08 00:50:43;;;;;;;4.88;3.85;;;9.70;84.50;;;;;;5010494;28;20413;-80
2021/10/08 00:53:09;;;;;;;6.50;4.35;;;9.70;84.40;;;;;;5010571;28;20451;-80
2021/10/08 00:55:40;;;;;;;8.82;6.20;;;9.70;84.40;;;;;;5010404;28;20102;-80
2021/10/08 00:58:06;;;;;;;8.27;5.47;;;9.70;84.40;;;;;;5010237;28;20050;-80
2021/10/08 01:00:31;;;;;;;13.95;9.98;;;9.70;84.50;;;;;;5010352;28;20018;-80
2021/10/08 01:02:57;;;;;;;17.52;11.52;;;9.80;84.70;;;;;;5010641;28;20064;-81
2021/10/08 01:05:23;;;;;;;18.98;12.10;;;9.90;84.90;;;;;;5010669;28;20025;-81
2021/10/08 01:07:49;;;;;;;17.80;12.32;;;10.00;85.00;;;;;;5009453;28;20030;-81
2021/10/08 01:10:15;;;;;;;16.88;11.23;;;10.10;85.10;;;;;;5010887;28;20068;-81
2021/10/08 01:12:41;;;;;;;22.55;14.05;;;10.20;85.20;;;;;;5010474;28;20029;-82
2021/10/08 01:15:08;;;;;;;23.70;15.57;;;10.30;85.40;;;;;;5010239;28;20025;-79
2021/10/08 01:17:34;;;;;;;19.10;13.00;;;10.40;85.70;;;;;;5010087;28;20030;-79
2021/10/08 01:20:11;;;;;;;19.38;13.00;;;10.50;85.80;;;;;;5010008;28;20033;-79
2021/10/08 01:22:37;;;;;;;19.13;13.00;;;10.60;85.80;;;;;;5009376;28;20365;-79
2021/10/08 01:25:04;;;;;;;30.45;19.25;;;10.70;86.50;;;;;;5010352;28;20105;-81
2021/10/08 01:27:30;;;;;;;24.92;16.48;;;10.70;86.00;;;;;;5009667;28;20566;-80
2021/10/08 01:29:57;;;;;;;19.85;13.18;;;10.80;86.00;;;;;;5009720;28;20105;-80
2021/10/08 01:32:25;;;;;;;24.40;15.57;;;10.80;85.90;;;;;;5010049;28;20391;-80
2021/10/08 01:34:51;;;;;;;20.45;13.85;;;10.80;86.00;;;;;;5010192;28;20109;-80
2021/10/08 01:37:18;;;;;;;24.40;16.10;;;10.90;86.10;;;;;;5009480;28;20136;-81
2021/10/08 01:39:44;;;;;;;22.48;15.25;;;10.90;86.20;;;;;;5009664;28;20384;-78
2021/10/08 01:42:11;;;;;;;22.67;15.63;;;11.00;86.20;;;;;;5010352;28;20388;-78
2021/10/08 01:44:36;;;;;;;23.60;15.85;;;11.00;86.30;;;;;;5009720;28;20026;-78
2021/10/08 01:47:03;;;;;;;23.17;15.88;;;11.00;86.30;;;;;;5009512;28;20104;-78
2021/10/08 01:49:28;;;;;;;26.20;17.20;;;11.00;86.30;;;;;;5010160;28;20049;-78
2021/10/08 01:51:54;;;;;;;22.83;15.15;;;11.00;86.30;;;;;;5009990;28;20057;-78
2021/10/08 01:54:20;;;;;;;20.42;14.45;;;11.00;86.40;;;;;;5010373;28;20033;-78
2021/10/08 01:56:45;;;;;;;18.42;12.43;;;11.00;86.30;;;;;;5009244;28;20411;-79
2021/10/08 01:59:12;;;;;;;15.35;10.25;;;11.10;86.40;;;;;;5009873;28;20480;-79
2021/10/08 02:01:38;;;;;;;18.27;12.07;;;11.10;86.30;;;;;;5009899;28;20021;-78
2021/10/08 02:04:04;;;;;;;19.42;12.90;;;11.10;86.30;;;;;;5009971;28;20037;-77
2021/10/08 02:06:29;;;;;;;16.35;10.93;;;11.10;86.20;;;;;;5009666;28;20037;-77
2021/10/08 02:08:55;;;;;;;14.82;10.35;;;11.10;86.10;;;;;;5009268;28;20419;-77
2021/10/08 02:11:20;;;;;;;14.52;9.68;;;11.10;86.10;;;;;;5009266;28;20032;-78
2021/10/08 02:13:46;;;;;;;13.90;8.93;;;11.10;86.10;;;;;;5009469;28;20033;-77
2021/10/08 02:16:12;;;;;;;16.88;10.73;;;11.10;86.00;;;;;;5008455;28;20529;-78
2021/10/08 02:18:37;;;;;;;19.33;12.82;;;11.20;86.10;;;;;;5008683;28;20034;-78
2021/10/08 02:21:04;;;;;;;21.52;14.20;;;11.10;86.00;;;;;;5009398;28;20102;-79
2021/10/08 02:23:30;;;;;;;22.88;14.93;;;11.10;86.00;;;;;;5009360;28;20022;-78
2021/10/08 02:25:55;;;;;;;14.73;9.75;;;11.10;86.10;;;;;;5009106;28;20018;-79
2021/10/08 02:28:21;;;;;;;14.45;10.07;;;11.10;86.10;;;;;;5008747;28;20018;-79
2021/10/08 02:30:47;;;;;;;16.52;11.10;;;11.10;86.10;;;;;;5009461;28;20060;-80
2021/10/08 02:33:12;;;;;;;14.25;8.95;;;11.10;86.00;;;;;;5009346;28;20029;-80
2021/10/08 02:35:38;;;;;;;17.92;11.20;;;11.10;86.00;;;;;;5009091;28;20064;-81
2021/10/08 02:38:04;;;;;;;17.05;10.85;;;11.10;85.90;;;;;;5008445;28;20499;-82
2021/10/08 02:40:29;;;;;;;14.35;8.93;;;11.10;85.90;;;;;;5008974;28;20014;-82
2021/10/08 02:42:55;;;;;;;14.80;9.68;;;11.10;85.80;;;;;;5009051;28;20158;-82
2021/10/08 02:45:20;;;;;;;14.15;9.30;;;11.10;85.80;;;;;;5009307;28;20545;-82
2021/10/08 02:47:47;;;;;;;14.10;9.60;;;11.10;85.80;;;;;;5008541;28;20113;-82
2021/10/08 02:50:12;;;;;;;15.18;9.95;;;11.10;85.80;;;;;;5009303;28;20490;-82
2021/10/08 02:52:38;;;;;;;12.20;8.50;;;11.10;85.80;;;;;;5008887;28;20034;-81
2021/10/08 02:55:06;;;;;;;14.50;9.18;;;11.10;85.80;;;;;;5008967;28;20049;-81
2021/10/08 02:57:32;;;;;;;13.15;8.52;;;11.10;86.30;;;;;;5008013;28;20069;-81
2021/10/08 02:59:57;;;;;;;16.05;9.77;;;11.00;85.70;;;;;;5009153;28;20061;-81
2021/10/08 03:02:23;;;;;;;14.57;9.38;;;11.00;85.60;;;;;;5010624;28;20417;-82
2021/10/08 03:04:48;;;;;;;12.90;8.82;;;10.90;85.60;;;;;;5008853;28;20437;-82
2021/10/08 03:07:14;;;;;;;11.85;7.68;;;10.90;85.70;;;;;;5007929;28;20503;-82
2021/10/08 03:09:39;;;;;;;9.55;6.75;;;10.70;85.60;;;;;;5008682;28;20379;-79
2021/10/08 03:12:05;;;;;;;8.82;6.28;;;10.70;85.70;;;;;;5008576;28;20488;-80
2021/10/08 03:14:31;;;;;;;8.82;5.63;;;10.60;85.70;;;;;;5008995;28;20601;-80
2021/10/08 03:16:56;;;;;;;9.18;6.20;;;10.50;85.70;;;;;;5007586;28;20037;-80
2021/10/08 03:19:22;;;;;;;9.57;6.07;;;10.40;85.60;;;;;;5008828;28;20037;-79
2021/10/08 03:21:48;;;;;;;7.95;6.10;;;10.40;85.70;;;;;;5008334;28;20159;-80
2021/10/08 03:24:13;;;;;;;7.40;5.47;;;10.30;85.60;;;;;;5008327;28;20125;-79
2021/10/08 03:26:39;;;;;;;9.07;5.70;;;10.30;85.60;;;;;;5008788;28;20026;-80
2021/10/08 03:29:04;;;;;;;6.97;4.82;;;10.20;85.50;;;;;;5008163;28;20033;-80
2021/10/08 03:31:30;;;;;;;7.40;5.28;;;10.10;85.40;;;;;;5008465;28;20033;-80
2021/10/08 03:33:55;;;;;;;9.38;5.43;;;10.10;85.40;;;;;;5008846;28;20034;-79
2021/10/08 03:36:30;;;;;;;7.85;5.28;;;10.00;85.40;;;;;;5008161;28;20066;-80
2021/10/08 03:38:56;;;;;;;7.32;5.38;;;9.90;85.50;;;;;;5005388;28;20503;-79
2021/10/08 03:41:21;;;;;;;7.97;5.22;;;9.90;85.60;;;;;;5008275;28;20026;-79
2021/10/08 03:43:47;;;;;;;7.07;5.28;;;9.80;85.60;;;;;;5008288;28;20037;-80
2021/10/08 03:46:14;;;;;;;6.68;5.22;;;9.70;85.50;;;;;;5010514;28;20030;-80
2021/10/08 03:51:27;;;;;;;8.27;5.65;;;9.70;85.60;;;;;;5011746;28;20045;-79
2021/10/08 03:53:52;;;;;;;9.73;6.40;;;9.70;85.60;;;;;;5012131;28;20038;-79
2021/10/08 03:56:19;;;;;;;9.63;6.68;;;9.70;85.60;;;;;;5011376;28;20083;-79
2021/10/08 03:58:44;;;;;;;9.70;6.88;;;9.70;85.60;;;;;;5011304;28;20042;-80
2021/10/08 04:01:10;;;;;;;11.40;6.85;;;9.70;85.50;;;;;;5011487;28;20445;-79
2021/10/08 04:03:36;;;;;;;16.45;9.13;;;9.80;85.50;;;;;;5009945;28;20037;-79
2021/10/08 04:06:02;;;;;;;12.95;8.75;;;9.80;85.50;;;;;;5011344;28;20357;-79
2021/10/08 04:08:27;;;;;;;13.25;8.23;;;9.90;85.50;;;;;;5010553;28;20037;-79
2021/10/08 04:10:53;;;;;;;15.10;9.50;;;9.90;85.40;;;;;;5011469;28;20029;-80
2021/10/08 04:13:18;;;;;;;13.98;8.85;;;9.90;85.40;;;;;;5010940;28;20428;-80
2021/10/08 04:15:44;;;;;;;14.85;9.77;;;9.90;85.40;;;;;;5011343;28;20030;-80
2021/10/08 04:18:11;;;;;;;14.68;8.57;;;10.00;85.50;;;;;;5010830;28;20037;-80
2021/10/08 04:20:37;;;;;;;13.07;8.85;;;10.00;85.50;;;;;;5011076;28;20364;-80
2021/10/08 04:23:03;;;;;;;15.52;8.57;;;10.00;85.50;;;;;;5011063;28;20033;-79
2021/10/08 04:25:29;;;;;;;14.38;9.40;;;10.10;85.50;;;;;;5010571;28;20022;-79
2021/10/08 04:27:54;;;;;;;14.23;9.13;;;10.10;85.50;;;;;;5010599;28;20030;-79
2021/10/08 04:30:20;;;;;;;14.48;8.90;;;10.10;85.50;;;;;;5011027;28;20026;-79
2021/10/08 04:32:46;;;;;;;12.45;8.18;;;10.10;85.50;;;;;;5010563;28;20159;-79
2021/10/08 04:35:11;;;;;;;14.75;9.38;;;10.20;85.50;;;;;;5010868;28;20391;-80
2021/10/08 04:37:37;;;;;;;13.13;8.35;;;10.20;85.50;;;;;;5010539;28;20368;-81
2021/10/08 04:40:03;;;;;;;15.07;9.38;;;10.20;85.40;;;;;;5011094;28;20097;-82
2021/10/08 04:42:29;;;;;;;14.43;9.27;;;10.10;85.50;;;;;;5010777;28;20037;-81
2021/10/08 04:44:55;;;;;;;15.68;9.10;;;10.10;85.50;;;;;;5010577;28;20029;-81
2021/10/08 04:47:20;;;;;;;14.48;9.30;;;10.10;85.50;;;;;;5010313;28;20018;-81
2021/10/08 04:49:46;;;;;;;14.95;9.77;;;10.10;85.50;;;;;;5010628;28;20030;-83
2021/10/08 04:52:11;;;;;;;14.50;9.15;;;10.10;85.50;;;;;;5010607;28;20079;-81
2021/10/08 04:54:37;;;;;;;12.88;8.50;;;10.10;85.60;;;;;;5010336;28;20029;-81
2021/10/08 04:57:07;;;;;;;13.75;8.57;;;10.00;85.50;;;;;;5009710;28;20394;-80
2021/10/08 04:59:33;;;;;;;11.38;7.63;;;10.00;85.60;;;;;;5008081;28;20132;-81
2021/10/08 05:01:59;;;;;;;10.15;6.82;;;10.00;85.60;;;;;;5010076;28;20045;-80
2021/10/08 05:04:24;;;;;;;13.50;7.93;;;9.90;85.60;;;;;;5009934;28;20026;-82
2021/10/08 05:06:50;;;;;;;13.18;8.23;;;9.90;85.60;;;;;;5010066;28;20392;-81
2021/10/08 05:09:16;;;;;;;11.57;7.63;;;9.90;85.60;;;;;;5010078;28;20037;-81
2021/10/08 05:11:41;;;;;;;13.05;8.27;;;9.80;85.70;;;;;;5010174;28;20033;-81
2021/10/08 05:14:07;;;;;;;12.73;7.40;;;9.80;85.80;;;;;;5010225;28;20033;-82
2021/10/08 05:16:32;;;;;;;12.23;8.07;;;9.80;85.80;;;;;;5009956;28;20060;-81
2021/10/08 05:18:58;;;;;;;11.27;7.10;;;9.80;85.70;;;;;;5009806;28;20059;-81
2021/10/08 05:21:23;;;;;;;14.48;9.18;;;9.70;85.60;;;;;;5010118;28;20365;-82
2021/10/08 05:23:49;;;;;;;15.80;9.50;;;9.70;85.70;;;;;;5010300;28;20377;-84
2021/10/08 05:26:14;;;;;;;12.90;8.20;;;9.70;85.80;;;;;;5010821;28;20033;-81
2021/10/08 05:28:40;;;;;;;14.45;8.88;;;9.70;85.80;;;;;;5009406;28;20037;-81
2021/10/08 05:31:06;;;;;;;16.05;9.55;;;9.70;85.70;;;;;;5010214;28;20029;-82
2021/10/08 05:33:32;;;;;;;11.02;7.15;;;9.70;85.80;;;;;;5010299;28;20030;-84
2021/10/08 05:35:58;;;;;;;13.80;8.60;;;9.70;85.80;;;;;;5009938;28;20033;-81
2021/10/08 05:38:24;;;;;;;13.93;9.07;;;9.70;86.40;;;;;;5026327;28;20042;-81
2021/10/08 05:40:52;;;;;;;13.70;8.43;;;9.70;85.80;;;;;;5017886;28;20031;-81
2021/10/08 05:43:18;;;;;;;12.82;7.85;;;9.70;85.80;;;;;;5002201;28;20526;-80
2021/10/08 05:45:43;;;;;;;13.80;8.73;;;9.70;85.60;;;;;;5009975;28;20041;-81
2021/10/08 05:48:09;;;;;;;13.57;8.65;;;9.70;85.80;;;;;;5014878;28;20038;-81
2021/10/08 05:50:34;;;;;;;16.45;9.90;;;9.80;85.90;;;;;;5034251;28;20029;-79
2021/10/08 05:53:00;;;;;;;14.70;9.07;;;9.80;85.80;;;;;;5009995;28;20034;-79
2021/10/08 05:55:26;;;;;;;16.17;9.95;;;9.80;85.80;;;;;;5008954;28;20030;-79
2021/10/08 05:57:51;;;;;;;14.85;9.65;;;9.80;85.80;;;;;;5005225;28;20071;-79
2021/10/08 06:00:17;;;;;;;16.58;10.93;;;9.80;85.80;;;;;;5009029;28;20044;-80
2021/10/08 06:02:42;;;;;;;15.45;9.95;;;9.80;85.80;;;;;;5009629;28;20026;-80
2021/10/08 06:05:08;;;;;;;15.85;10.35;;;9.80;85.90;;;;;;5009169;28;20033;-80
2021/10/08 06:07:33;;;;;;;15.18;9.80;;;9.80;85.90;;;;;;5019335;28;20012;-80
2021/10/08 06:09:59;;;;;;;14.35;9.23;;;9.90;85.90;;;;;;5032088;28;20030;-79
2021/10/08 06:12:24;;;;;;;15.35;9.68;;;9.90;85.80;;;;;;5007381;28;20022;-80
2021/10/08 06:14:50;;;;;;;14.50;8.70;;;9.90;85.70;;;;;;5008181;28;20034;-80
2021/10/08 06:17:16;;;;;;;18.08;11.23;;;9.90;85.70;;;;;;5003497;28;20022;-80
2021/10/08 06:19:42;;;;;;;15.95;9.98;;;9.90;85.70;;;;;;5005872;28;20038;-79
2021/10/08 06:22:08;;;;;;;15.68;10.10;;;10.00;85.80;;;;;;5003642;28;20033;-79
2021/10/08 06:24:34;;;;;;;16.48;10.43;;;10.00;85.70;;;;;;5005058;28;20030;-80
2021/10/08 06:27:00;;;;;;;11.32;8.07;;;10.10;85.70;;;;;;5005107;28;20368;-80
2021/10/08 06:29:25;;;;;;;14.63;9.73;;;10.10;85.60;;;;;;5007525;28;20026;-79
2021/10/08 06:31:51;;;;;;;15.50;9.65;;;10.20;85.50;;;;;;5005233;28;20044;-79
2021/10/08 06:34:16;;;;;;;13.48;8.77;;;10.20;85.40;;;;;;5002834;28;20414;-79
2021/10/08 06:36:42;;;;;;;13.55;8.70;;;10.30;85.30;;;;;;4999134;28;20030;-79
2021/10/08 06:39:07;;;;;;;14.57;9.45;;;10.30;85.20;;;;;;5006534;28;20482;-79
2021/10/08 06:41:33;;;;;;;14.52;9.90;;;10.40;85.10;;;;;;5029291;28;20029;-80
2021/10/08 06:43:59;;;;;;;12.95;8.40;;;10.50;84.90;;;;;;5003821;28;20082;-80
2021/10/08 06:46:25;;;;;;;14.32;9.25;;;10.60;84.80;;;;;;5007087;28;20026;-80
2021/10/08 06:48:50;;;;;;;31.27;21.00;;;10.60;84.60;;;;;;5008333;28;20025;-80
2021/10/08 06:51:16;;;;;;;15.20;10.95;;;10.70;84.40;;;;;;5008873;28;20033;-81
2021/10/08 06:53:42;;;;;;;16.20;9.88;;;10.70;84.20;;;;;;5008571;28;20021;-81
2021/10/08 06:56:08;;;;;;;13.20;9.35;;;10.80;84.10;;;;;;5008930;28;20373;-81
2021/10/08 06:58:33;;;;;;;14.95;10.30;;;10.80;84.00;;;;;;5008473;28;20427;-81
2021/10/08 07:00:59;;;;;;;18.42;12.05;;;10.90;83.90;;;;;;5008859;28;20036;-81
2021/10/08 07:03:26;;;;;;;15.68;11.30;;;10.90;83.90;;;;;;5008874;28;20040;-81
2021/10/08 07:05:52;;;;;;;16.02;10.82;;;11.00;83.90;;;;;;5008277;28;20399;-81
2021/10/08 07:08:17;;;;;;;14.57;9.40;;;11.00;83.70;;;;;;5008361;28;20026;-81
2021/10/08 07:10:43;;;;;;;13.00;9.20;;;11.10;83.70;;;;;;5008911;28;20029;-81
2021/10/08 07:13:09;;;;;;;14.20;9.15;;;11.10;83.60;;;;;;5007737;28;20034;-82
2021/10/08 07:15:34;;;;;;;10.52;7.25;;;11.20;83.50;;;;;;5008260;28;20041;-80
2021/10/08 07:18:01;;;;;;;13.32;9.40;;;11.20;83.50;;;;;;5017682;28;20484;-81
2021/10/08 07:20:28;;;;;;;11.90;7.93;;;11.20;83.50;;;;;;5008609;28;20472;-81
2021/10/08 07:22:55;;;;;;;12.88;8.57;;;11.30;83.70;;;;;;5008550;28;20030;-81
2021/10/08 07:25:23;;;;;;;11.40;8.27;;;11.30;83.70;;;;;;5008371;28;20018;-81
2021/10/08 07:27:49;;;;;;;10.45;7.13;;;11.30;83.80;;;;;;5007980;28;20026;-81
2021/10/08 07:30:15;;;;;;;12.77;8.88;;;11.30;83.80;;;;;;5009333;28;20091;-81
2021/10/08 07:32:41;;;;;;;10.75;7.47;;;11.30;83.90;;;;;;5008807;28;20030;-81
2021/10/08 07:35:08;;;;;;;11.90;8.68;;;11.40;83.90;;;;;;5008617;28;20101;-81
2021/10/08 07:37:34;;;;;;;12.40;9.50;;;11.50;83.90;;;;;;5008060;28;20045;-81
2021/10/08 07:39:59;;;;;;;8.15;5.80;;;11.50;83.80;;;;;;5008075;28;20022;-81
2021/10/08 07:42:25;;;;;;;12.32;8.85;;;11.60;83.80;;;;;;5008044;28;20122;-81
2021/10/08 07:44:52;;;;;;;15.38;10.95;;;11.60;83.70;;;;;;5007648;28;20625;-81
2021/10/08 07:47:18;;;;;;;13.30;9.70;;;11.70;84.00;;;;;;5006619;28;20055;-81
2021/10/08 07:49:44;;;;;;;16.83;12.02;;;11.70;84.00;;;;;;5008273;28;20102;-81
2021/10/08 07:52:09;;;;;;;13.38;9.98;;;11.70;84.10;;;;;;5007801;28;20101;-80
2021/10/08 07:54:35;;;;;;;16.63;11.13;;;11.80;84.20;;;;;;5007976;28;20084;-80
2021/10/08 07:57:00;;;;;;;20.42;13.23;;;11.90;84.20;;;;;;5007080;28;20030;-80
2021/10/08 07:59:26;;;;;;;29.85;20.02;;;11.90;84.30;;;;;;5007995;28;20058;-81
2021/10/08 08:01:51;;;;;;;19.73;13.43;;;11.90;84.70;;;;;;5012602;28;20467;-80
2021/10/08 08:04:17;;;;;;;19.55;13.60;;;12.00;84.70;;;;;;5024134;28;20026;-80
2021/10/08 08:06:42;;;;;;;17.83;11.93;;;12.10;84.80;;;;;;5007810;28;20014;-81
2021/10/08 08:09:08;;;;;;;24.80;16.42;;;12.10;84.70;;;;;;5007368;28;20535;-80
2021/10/08 08:11:34;;;;;;;30.50;20.38;;;12.30;85.20;;;;;;5007556;28;20025;-81
2021/10/08 08:14:00;;;;;;;30.80;20.23;;;12.30;85.10;;;;;;5007560;28;20045;-81
2021/10/08 08:16:25;;;;;;;29.58;20.42;;;12.30;85.20;;;;;;5007231;28;20030;-81
2021/10/08 08:18:51;;;;;;;25.83;17.52;;;12.30;85.40;;;;;;5006984;28;20034;-81
2021/10/08 08:21:18;;;;;;;25.13;15.75;;;12.40;85.40;;;;;;5005691;28;20036;-80
2021/10/08 08:23:45;;;;;;;21.98;14.75;;;12.50;85.20;;;;;;4999982;28;20369;-79
2021/10/08 08:26:11;;;;;;;21.35;14.85;;;12.60;85.00;;;;;;5000694;28;20021;-78
2021/10/08 08:28:37;;;;;;;19.77;12.88;;;12.70;84.90;;;;;;4997214;28;20737;-78
2021/10/08 08:31:02;;;;;;;14.25;9.68;;;12.90;84.60;;;;;;5013275;28;20024;-76
2021/10/08 08:33:29;;;;;;;19.10;13.00;;;13.00;84.50;;;;;;5015569;28;20086;-78
2021/10/08 08:35:55;;;;;;;15.43;10.55;;;13.10;84.40;;;;;;5005363;28;20030;-78
2021/10/08 08:38:20;;;;;;;14.18;9.32;;;13.20;84.20;;;;;;5002978;28;20411;-78
2021/10/08 08:40:46;;;;;;;17.92;11.82;;;13.20;84.10;;;;;;5006835;28;20079;-79
2021/10/08 08:43:12;;;;;;;18.27;12.50;;;13.30;84.10;;;;;;5003294;28;20518;-76
2021/10/08 08:45:37;;;;;;;17.92;11.60;;;13.40;84.10;;;;;;5006716;28;20030;-77
2021/10/08 08:48:08;;;;;;;21.50;12.98;;;13.50;84.10;;;;;;5006867;28;20128;-78
2021/10/08 08:50:40;;;;;;;18.73;12.35;;;13.50;84.10;;;;;;5038253;28;20053;-78
2021/10/08 08:53:06;;;;;;;19.30;12.88;;;13.60;84.10;;;;;;5004253;28;20031;-78
2021/10/08 08:55:32;;;;;;;14.93;9.93;;;13.70;84.10;;;;;;5006656;28;20033;-80
2021/10/08 08:57:58;;;;;;;18.05;11.88;;;13.80;84.00;;;;;;5003585;28;20063;-78
2021/10/08 09:00:24;;;;;;;16.63;11.00;;;13.80;84.10;;;;;;5014114;28;20026;-78
2021/10/08 09:02:59;;;;;;;16.85;11.75;;;13.90;83.90;;;;;;5009905;28;20030;-78
2021/10/08 09:05:33;;;;;;;16.00;10.63;;;14.00;84.60;;;;;;5004286;28;20042;-78
2021/10/08 09:08:06;;;;;;;18.85;12.23;;;14.00;83.90;;;;;;5000273;28;20053;-77
2021/10/08 09:10:34;;;;;;;15.13;10.60;;;14.10;83.80;;;;;;5005514;28;20030;-78
2021/10/08 09:13:00;;;;;;;10.82;7.10;;;14.20;83.80;;;;;;5005287;28;20021;-77
2021/10/08 09:15:43;;;;;;;19.20;13.07;;;14.30;83.70;;;;;;5006768;28;20113;-78
2021/10/08 09:18:10;;;;;;;12.50;8.52;;;14.20;83.60;;;;;;5000929;28;20033;-78
2021/10/08 09:20:37;;;;;;;11.93;8.48;;;14.30;83.60;;;;;;5002232;28;20045;-78
2021/10/08 09:23:04;;;;;;;9.32;6.18;;;14.40;83.60;;;;;;5004084;28;20022;-78
2021/10/08 09:25:34;;;;;;;7.38;4.93;;;14.50;83.40;;;;;;5005815;28;20014;-78
2021/10/08 09:28:02;;;;;;;9.13;5.57;;;14.60;83.20;;;;;;4999435;28;20392;-76
2021/10/08 09:30:41;;;;;;;11.98;8.48;;;14.60;83.10;;;;;;5003492;28;20377;-78
2021/10/08 09:33:09;;;;;;;15.18;9.38;;;14.70;83.10;;;;;;5002651;28;20388;-78
2021/10/08 09:35:36;;;;;;;16.35;10.93;;;14.70;83.10;;;;;;5002432;28;20029;-78
2021/10/08 09:38:10;;;;;;;18.08;11.77;;;14.80;83.20;;;;;;5003851;28;20430;-78
2021/10/08 09:40:48;;;;;;;20.13;12.30;;;14.80;83.10;;;;;;5000388;28;20561;-79
2021/10/08 09:43:22;;;;;;;13.30;9.00;;;14.80;83.00;;;;;;5000550;28;20029;-78
2021/10/08 09:45:51;;;;;;;13.75;9.30;;;14.90;82.90;;;;;;5000438;28;20057;-79
2021/10/08 09:48:21;;;;;;;11.18;7.45;;;15.00;82.90;;;;;;5001308;28;20651;-79
2021/10/08 09:51:11;;;;;;;11.63;7.43;;;15.10;82.70;;;;;;5003797;28;20031;-79
2021/10/08 09:53:47;;;;;;;16.90;11.27;;;15.10;82.60;;;;;;5004421;28;20026;-79
2021/10/08 09:56:39;;;;;;;12.10;8.10;;;15.20;82.40;;;;;;5005684;28;20082;-78
2021/10/08 09:59:14;;;;;;;17.67;11.82;;;15.20;82.30;;;;;;5005291;28;20044;-77
2021/10/08 10:01:42;;;;;;;13.95;9.88;;;15.30;82.20;;;;;;5008906;28;20029;-78
2021/10/08 10:04:10;;;;;;;19.98;14.02;;;15.30;82.10;;;;;;4998594;28;20377;-77
2021/10/08 10:06:42;;;;;;;22.83;15.35;;;15.30;82.00;;;;;;5006629;28;20138;-79
2021/10/08 10:09:11;;;;;;;16.92;11.10;;;15.30;81.80;;;;;;5006839;28;20109;-78
2021/10/08 10:11:36;;;;;;;14.50;9.85;;;15.30;81.80;;;;;;5003454;28;20527;-78
2021/10/08 10:14:02;;;;;;;19.33;12.52;;;15.30;81.70;;;;;;5004338;28;20117;-78
2021/10/08 10:16:33;;;;;;;21.23;13.77;;;15.30;81.50;;;;;;5005964;28;20026;-78
2021/10/08 10:19:01;;;;;;;21.73;12.90;;;15.30;81.20;;;;;;5001724;28;20042;-78
2021/10/08 10:21:29;;;;;;;17.38;10.82;;;15.30;81.20;;;;;;5005237;28;20526;-79
2021/10/08 10:23:58;;;;;;;19.17;12.35;;;15.40;81.40;;;;;;5006429;28;20034;-78
2021/10/08 10:26:28;;;;;;;18.67;11.43;;;15.40;80.40;;;;;;5004982;28;20022;-78
2021/10/08 10:28:55;;;;;;;18.15;11.88;;;15.40;80.00;;;;;;5005576;28;20608;-79
2021/10/08 10:31:22;;;;;;;18.92;12.60;;;15.40;80.00;;;;;;4999813;28;20022;-78
2021/10/08 10:33:57;;;;;;;19.30;12.02;;;15.50;80.60;;;;;;5005137;28;20105;-78
2021/10/08 10:36:29;;;;;;;18.15;12.02;;;15.60;79.90;;;;;;5005081;28;20050;-78
2021/10/08 10:39:16;;;;;;;16.42;10.55;;;15.60;79.60;;;;;;5002596;28;20050;-77
2021/10/08 10:42:14;;;;;;;13.25;8.65;;;15.60;79.50;;;;;;5004450;28;20026;-77
2021/10/08 10:45:08;;;;;;;13.57;9.05;;;15.70;79.40;;;;;;5002420;28;20029;-79
2021/10/08 10:47:36;;;;;;;15.38;10.20;;;15.80;78.80;;;;;;5002492;28;20476;-78
2021/10/08 10:50:16;;;;;;;15.93;11.50;;;15.70;78.10;;;;;;5012345;28;20463;-78
2021/10/08 10:52:53;;;;;;;14.02;10.10;;;15.70;78.00;;;;;;5007226;28;20112;-78
2021/10/08 10:55:21;;;;;;;18.15;11.63;;;15.80;78.20;;;;;;5008139;28;20037;-79
2021/10/08 10:57:49;;;;;;;15.65;10.60;;;15.80;78.00;;;;;;5006468;28;20075;-78
2021/10/08 11:00:27;;;;;;;13.45;9.20;;;15.90;78.20;;;;;;5007561;28;20033;-79
2021/10/08 11:03:16;;;;;;;13.60;7.93;;;15.90;77.90;;;;;;5005028;28;20094;-79
2021/10/08 11:06:07;;;;;;;13.00;8.15;;;16.00;78.00;;;;;;5005550;28;20380;-80
2021/10/08 11:08:33;;;;;;;12.80;9.02;;;16.10;77.90;;;;;;5011189;28;20493;-78
2021/10/08 11:10:59;;;;;;;11.52;8.48;;;16.10;77.50;;;;;;5026609;28;20064;-78
2021/10/08 11:13:31;;;;;;;8.18;5.85;;;16.20;77.50;;;;;;5003146;28;20117;-79
2021/10/08 11:16:03;;;;;;;9.40;6.78;;;16.30;78.00;;;;;;5010181;28;20501;-79
2021/10/08 11:18:51;;;;;;;13.57;9.50;;;16.40;77.30;;;;;;5007512;28;20056;-79
2021/10/08 11:21:25;;;;;;;11.68;8.73;;;16.40;76.20;;;;;;5007445;28;20037;-79
2021/10/08 11:23:51;;;;;;;9.45;6.38;;;16.40;75.90;;;;;;5006367;28;20719;-77
2021/10/08 11:26:17;;;;;;;10.50;7.45;;;16.50;76.10;;;;;;5008249;28;20121;-77
2021/10/08 11:28:45;;;;;;;9.07;6.53;;;16.50;75.40;;;;;;5006211;28;20411;-77
2021/10/08 11:31:17;;;;;;;8.98;7.05;;;16.70;75.50;;;;;;5007290;28;20155;-77
2021/10/08 11:33:44;;;;;;;;;;;16.80;74.90;;;;;;5007624;28;20795;-77
2021/10/08 11:36:17;;;;;;;6.13;4.95;;;16.70;74.00;;;;;;5007642;28;19917;-79
2021/10/08 11:38:42;;;;;;;6.70;5.05;;;16.70;73.10;;;;;;5012214;28;20416;-80
2021/10/08 11:41:23;;;;;;;6.43;4.85;;;16.80;72.30;;;;;;5005980;28;20053;-78
2021/10/08 11:44:03;;;;;;;5.50;4.13;;;16.70;70.70;;;;;;5006383;28;20045;-77
2021/10/08 11:46:37;;;;;;;4.25;3.17;;;16.80;70.60;;;;;;5003361;28;20482;-77
2021/10/08 11:49:24;;;;;;;4.15;3.15;;;16.90;70.90;;;;;;5014958;28;20105;-79
2021/10/08 11:51:56;;;;;;;3.75;3.10;;;16.90;70.10;;;;;;5048738;28;20030;-78
2021/10/08 11:54:22;;;;;;;4.32;3.08;;;16.90;68.10;;;;;;5020066;28;20026;-78
2021/10/08 11:57:09;;;;;;;3.15;2.60;;;17.00;67.10;;;;;;5010058;28;20026;-77
2021/10/08 11:59:36;;;;;;;4.32;3.20;;;17.00;67.00;;;;;;5007343;28;20033;-78
2021/10/08 12:02:12;;;;;;;4.43;3.10;;;17.00;66.60;;;;;;5005813;28;20029;-77
2021/10/08 12:04:39;;;;;;;5.43;2.70;;;17.00;66.60;;;;;;5008670;28;20037;-77
2021/10/08 12:07:10;;;;;;;2.70;2.05;;;17.00;65.70;;;;;;5014274;28;20021;-77
2021/10/08 12:09:36;;;;;;;2.65;2.17;;;17.10;63.80;;;;;;5018655;28;20079;-79
2021/10/08 12:12:14;;;;;;;3.30;2.50;;;17.10;62.50;;;;;;5009479;28;20033;-78
2021/10/08 12:14:47;;;;;;;3.80;2.20;;;17.20;63.10;;;;;;5005768;28;20045;-78
2021/10/08 12:17:13;;;;;;;1.60;1.50;;;17.20;63.30;;;;;;5104839;27;20030;-78
2021/10/08 12:19:39;;;;;;;2.47;2.20;;;17.40;64.20;;;;;;5009953;28;20453;-78
2021/10/08 12:22:05;;;;;;;2.67;1.92;;;17.60;63.20;;;;;;5007913;28;20120;-78
2021/10/08 12:24:32;;;;;;;3.25;2.40;;;17.70;63.90;;;;;;5011708;28;20030;-78
2021/10/08 12:27:02;;;;;;;2.72;2.13;;;17.90;62.80;;;;;;5003203;28;20026;-77
2021/10/08 12:29:41;;;;;;;2.55;1.95;;;17.90;62.40;;;;;;5002678;28;20065;-78
2021/10/08 12:32:15;;;;;;;3.47;2.10;;;17.90;62.60;;;;;;5007444;28;20026;-78
2021/10/08 12:34:46;;;;;;;2.47;1.98;;;18.00;62.70;;;;;;5004836;28;20810;-78
2021/10/08 12:37:15;;;;;;;3.22;2.10;;;18.10;62.90;;;;;;5005283;28;20065;-78
2021/10/08 12:40:08;;;;;;;2.90;2.15;;;18.30;61.10;;;;;;5007475;28;20101;-78
2021/10/08 12:42:36;;;;;;;2.10;1.40;;;18.20;61.90;;;;;;5005227;28;20026;-78
2021/10/08 12:45:05;;;;;;;1.63;1.27;;;18.30;62.30;;;;;;5004003;28;20034;-77